LRTR - TIMISOARA / TRAIAN VUIA

Compiled: 17:52:49 on 22/07/2018

Latest METAR/SPECI Reports

METAR LRTR 221730Z 14003KT 090V180 CAVOK 22/21 Q1009 R11/290095=

Previous reports

METAR LRTR 221700Z 10003KT CAVOK 22/21 Q1009 R11/290095=
METAR LRTR 221630Z VRB01KT CAVOK 22/21 Q1009 R11/290095=
METAR LRTR 221600Z 00000KT CAVOK 23/20 Q1008 R11/290095=
METAR LRTR 221530Z 00000KT CAVOK 22/20 Q1008 R11/290095=

Latest TAF report

TAF LRTR 221700Z 2218/2318 VRB04KT CAVOK PROB40 TEMPO 2302/2307 5000 -TSRA SCT035CB TEMPO 2307/2316 5000 -TSRA SCT040CB PROB40 2309/2312 VRB20KT 3000 TSRA BKN010 BKN030CB=

Valid WARNINGS

No valid warnings for LRTR